Sacramento, California
Traffic Map
Current Weather Conditions
Sacramento, California
Clear
Clear
79°
Feels Like: 80°
Wind Chill: 79° Ceiling: Unl
Heat Index: 80° Visibility: 10mi
Dew Point: 60° Wind: 9mph
Humidity: 52% Direction: 220° (SW)
Pressure: 29.76in Gusts: 0mph
Raw Report DataKSAC 200153Z 22008KT 10SM CLR 26/16 A2976 RMK AO2 SLP078 T02610156
Traffic Incident Summary
Active as of:
Severity:
Category:
InformationThere was an issue retrieving the traffic information for this location. Please try a different location or try again shortly.
Advertisements